Time;durP1;ratioP1;P1;durP2;ratioP2;P2;SDS_P1;SDS_P2;PMS_P1;PMS_P2;Temp;Humidity;BMP_temperature;BMP_pressure;BME280_temperature;BME280_humidity;BME280_pressure;Samples;Min_cycle;Max_cycle;Signal;HPM_P1;HPM_P2
2021/07/12 00:02:05;;;;;;;6.03;4.30;;;;;;;15.40;77.41;100969.28;5083430;28;20024;-71
2021/07/12 00:04:31;;;;;;;8.85;4.20;;;;;;;15.37;77.87;100971.97;5083392;28;20374;-72
2021/07/12 00:06:56;;;;;;;5.47;4.15;;;;;;;15.38;77.73;100976.31;5083512;28;20031;-71
2021/07/12 00:09:22;;;;;;;5.20;3.88;;;;;;;15.35;77.62;100971.16;5083340;28;20492;-71
2021/07/12 00:11:47;;;;;;;7.05;4.57;;;;;;;15.32;77.65;100972.06;5083329;28;20084;-72
2021/07/12 00:14:13;;;;;;;5.03;4.47;;;;;;;15.29;77.81;100974.75;5083448;28;20177;-72
2021/07/12 00:16:39;;;;;;;8.15;4.60;;;;;;;15.26;77.79;100977.41;5083381;28;20035;-71
2021/07/12 00:19:05;;;;;;;5.50;4.50;;;;;;;15.25;78.03;100978.31;5083835;28;20025;-72
2021/07/12 00:21:31;;;;;;;5.80;4.60;;;;;;;15.22;77.97;100981.00;5083529;28;20024;-72
2021/07/12 00:23:57;;;;;;;4.68;4.13;;;;;;;15.20;78.13;100977.53;5083581;28;20465;-72
2021/07/12 00:26:22;;;;;;;7.35;4.65;;;;;;;15.14;78.19;100977.66;5083273;28;20017;-72
2021/07/12 00:28:48;;;;;;;5.65;4.50;;;;;;;15.16;78.27;100981.09;5081780;28;20495;-71
2021/07/12 00:31:13;;;;;;;9.27;4.35;;;;;;;15.13;78.52;100982.00;5083217;28;20111;-70
2021/07/12 00:33:39;;;;;;;5.95;4.63;;;;;;;15.13;78.47;100973.31;5083350;28;20035;-71
2021/07/12 00:36:06;;;;;;;7.60;3.85;;;;;;;15.14;78.82;100983.75;5083270;28;20021;-71
2021/07/12 00:38:31;;;;;;;8.90;5.07;;;;;;;15.13;78.76;100983.78;5082841;28;20031;-71
2021/07/12 00:40:57;;;;;;;7.95;6.15;;;;;;;15.11;78.95;100984.66;5083230;28;20028;-71
2021/07/12 00:43:22;;;;;;;10.80;5.68;;;;;;;15.10;78.88;100976.81;5082921;28;20048;-71
2021/07/12 00:45:48;;;;;;;5.55;4.32;;;;;;;15.08;78.88;100978.63;5086882;28;20040;-71
2021/07/12 00:48:14;;;;;;;8.25;4.55;;;;;;;15.04;79.07;100976.94;5086990;28;20108;-71
2021/07/12 00:50:42;;;;;;;7.03;4.85;;;;;;;14.99;79.25;100963.97;5087077;28;20028;-71
2021/07/12 00:53:09;;;;;;;6.15;4.68;;;;;;;15.04;79.37;100974.31;5086935;28;20041;-70
2021/07/12 00:55:45;;;;;;;6.00;5.00;;;;;;;15.04;79.33;100980.44;5085412;28;20038;-72
2021/07/12 00:58:15;;;;;;;9.68;5.35;;;;;;;14.97;79.34;100969.22;5086812;28;20024;-73
2021/07/12 01:00:42;;;;;;;7.57;4.95;;;;;;;15.00;79.43;100976.13;5086628;28;20063;-72
2021/07/12 01:03:09;;;;;;;7.65;5.05;;;;;;;14.95;79.76;100976.22;5086876;28;20024;-71
2021/07/12 01:05:35;;;;;;;11.05;4.78;;;;;;;14.94;79.85;100976.25;5086916;28;20201;-71
2021/07/12 01:08:01;;;;;;;6.75;4.70;;;;;;;14.90;79.89;100964.13;5085441;28;20021;-72
2021/07/12 01:10:28;;;;;;;10.52;5.47;;;;;;;14.90;79.98;100974.56;5086728;28;20059;-72
2021/07/12 01:13:14;;;;;;;8.90;5.28;;;;;;;14.95;79.83;100975.38;5086607;28;20012;-72
2021/07/12 01:16:23;;;;;;;7.85;4.78;;;;;;;14.96;79.92;100977.97;5086377;28;20080;-72
2021/07/12 01:18:56;;;;;;;6.25;4.90;;;;;;;14.97;80.18;100982.28;5085695;28;20484;-72
2021/07/12 01:22:08;;;;;;;6.90;4.85;;;;;;;14.95;79.99;100981.44;5085092;28;20035;-72
2021/07/12 01:24:52;;;;;;;6.70;4.90;;;;;;;14.90;80.07;100982.41;5086171;28;20425;-72
2021/07/12 01:27:35;;;;;;;5.35;4.68;;;;;;;14.83;80.43;100982.53;5086440;28;20028;-73
2021/07/12 01:30:45;;;;;;;8.77;4.68;;;;;;;14.78;80.60;100976.47;5086323;28;20039;-73
2021/07/12 01:33:32;;;;;;;5.95;4.22;;;;;;;14.75;80.61;100969.56;5043407;28;20034;-73
2021/07/12 01:36:11;;;;;;;6.97;4.57;;;;;;;14.79;80.65;100973.00;5043737;28;20034;-73
2021/07/12 01:39:01;;;;;;;9.52;5.20;;;;;;;14.80;80.63;100966.91;5043471;28;20049;-72
2021/07/12 01:41:34;;;;;;;7.82;5.45;;;;;;;14.82;80.80;100970.34;5043369;28;20025;-72
2021/07/12 01:44:05;;;;;;;6.45;4.55;;;;;;;14.84;80.57;100970.34;5043109;28;20533;-72
2021/07/12 01:46:36;;;;;;;7.23;4.27;;;;;;;14.83;80.80;100972.06;5043528;28;20033;-73
2021/07/12 01:49:17;;;;;;;5.50;4.57;;;;;;;14.87;80.70;100967.66;5043664;28;20420;-73
2021/07/12 01:51:52;;;;;;;4.63;4.07;;;;;;;14.91;80.67;100965.84;5043558;28;20050;-74
2021/07/12 01:54:30;;;;;;;6.50;4.30;;;;;;;14.93;80.57;100964.06;5042658;28;20089;-72
2021/07/12 01:57:01;;;;;;;5.22;4.65;;;;;;;14.95;80.39;100964.91;5042935;28;20038;-72
2021/07/12 01:59:35;;;;;;;5.28;4.57;;;;;;;14.98;80.51;100970.09;5043185;28;20099;-72
2021/07/12 02:02:04;;;;;;;6.70;4.90;;;;;;;15.01;80.43;100967.41;5026251;28;20136;-71
2021/07/12 02:04:32;;;;;;;4.63;3.83;;;;;;;15.04;80.36;100969.09;5042939;28;20037;-73
2021/07/12 02:06:59;;;;;;;6.43;3.78;;;;;;;15.06;80.41;100976.03;5042829;28;20068;-71
2021/07/12 02:09:25;;;;;;;6.15;3.85;;;;;;;15.08;79.94;100974.25;5050071;28;20040;-73
2021/07/12 02:11:53;;;;;;;4.70;4.18;;;;;;;15.07;80.03;100976.88;5085507;28;20052;-71
2021/07/12 02:14:21;;;;;;;7.35;4.40;;;;;;;15.07;80.24;100977.75;5085604;28;20012;-72
2021/07/12 02:16:49;;;;;;;7.00;4.18;;;;;;;15.05;80.15;100971.69;5085371;28;20012;-72
2021/07/12 02:19:15;;;;;;;5.70;3.95;;;;;;;15.06;80.16;100973.44;5085260;28;20180;-72
2021/07/12 02:21:42;;;;;;;6.20;4.05;;;;;;;15.12;80.02;100972.44;5085151;28;20029;-72
2021/07/12 02:24:08;;;;;;;6.18;4.28;;;;;;;15.15;79.99;100968.91;5085235;28;20078;-73
2021/07/12 02:26:35;;;;;;;5.63;4.00;;;;;;;15.15;79.86;100974.13;5085135;28;20017;-73
2021/07/12 02:29:02;;;;;;;4.88;4.38;;;;;;;15.16;79.83;100978.50;5085110;28;20527;-72
2021/07/12 02:31:29;;;;;;;6.50;4.07;;;;;;;15.16;79.59;100978.50;5085145;28;20116;-71
2021/07/12 02:33:55;;;;;;;5.93;3.80;;;;;;;15.16;79.70;100973.25;5084980;28;20021;-72
2021/07/12 02:36:22;;;;;;;5.03;4.00;;;;;;;15.17;79.46;100977.59;5085005;28;20016;-71
2021/07/12 02:38:54;;;;;;;4.15;3.50;;;;;;;15.14;79.56;100970.66;5084882;28;20084;-72
2021/07/12 02:41:20;;;;;;;6.43;3.55;;;;;;;15.13;79.48;100970.69;5084856;28;20032;-71
2021/07/12 02:43:47;;;;;;;5.13;3.40;;;;;;;15.24;79.44;100968.72;5085087;28;20141;-73
2021/07/12 02:46:13;;;;;;;6.47;3.42;;;;;;;15.24;79.30;100958.25;5084783;28;20432;-72
2021/07/12 02:48:40;;;;;;;5.72;4.00;;;;;;;15.30;79.07;100968.63;5084876;28;20051;-72
2021/07/12 02:51:10;;;;;;;5.00;3.95;;;;;;;15.28;78.91;100965.16;5083490;28;20024;-72
2021/07/12 02:53:42;;;;;;;4.88;3.78;;;;;;;15.24;78.89;100971.34;5084589;28;20051;-73
2021/07/12 02:56:07;;;;;;;6.10;4.13;;;;;;;15.19;78.74;100970.59;5084674;28;20021;-72
2021/07/12 02:58:33;;;;;;;6.05;4.65;;;;;;;15.09;78.86;100970.75;5084691;28;20113;-73
2021/07/12 03:00:58;;;;;;;4.63;3.85;;;;;;;15.04;79.03;100962.13;5084345;28;20036;-72
2021/07/12 03:03:24;;;;;;;5.50;4.15;;;;;;;14.97;79.50;100957.88;5084623;28;20080;-72
2021/07/12 03:05:56;;;;;;;5.68;4.00;;;;;;;14.98;79.58;100959.63;5084185;28;20298;-72
2021/07/12 03:08:28;;;;;;;7.05;4.03;;;;;;;15.02;79.82;100961.28;5084315;28;20028;-72
2021/07/12 03:10:59;;;;;;;7.65;4.60;;;;;;;15.07;79.45;100956.84;5083153;28;20012;-72
2021/07/12 03:13:53;;;;;;;4.80;3.80;;;;;;;15.18;79.52;100964.47;5084379;28;20089;-72
2021/07/12 03:16:18;;;;;;;4.32;3.28;;;;;;;15.33;79.67;100967.69;5065088;28;20024;-72
2021/07/12 03:18:55;;;;;;;5.55;3.03;;;;;;;15.52;79.42;100968.19;5084247;28;20444;-71
2021/07/12 03:21:23;;;;;;;4.45;3.70;;;;;;;15.69;78.86;100970.47;5084015;28;20055;-71
2021/07/12 03:23:50;;;;;;;3.92;3.53;;;;;;;15.79;78.37;100965.91;5084235;28;20191;-72
2021/07/12 03:26:19;;;;;;;4.90;3.00;;;;;;;15.77;77.92;100957.22;5084000;28;20084;-71
2021/07/12 03:28:46;;;;;;;3.92;3.22;;;;;;;16.00;77.97;100963.75;5083983;28;20080;-72
2021/07/12 03:31:12;;;;;;;5.60;3.25;;;;;;;16.23;76.98;100970.19;5083764;28;20029;-71
2021/07/12 03:33:39;;;;;;;3.75;2.85;;;;;;;16.37;76.27;100955.94;5083928;28;20465;-72
2021/07/12 03:36:05;;;;;;;3.95;2.78;;;;;;;16.48;75.77;100959.16;5084140;28;20319;-72
2021/07/12 03:38:31;;;;;;;3.55;2.78;;;;;;;16.56;75.17;100956.34;5083949;28;20035;-72
2021/07/12 03:40:58;;;;;;;4.55;3.30;;;;;;;16.60;74.69;100945.75;5083757;28;20059;-71
2021/07/12 03:43:24;;;;;;;3.13;2.75;;;;;;;16.71;74.15;100947.22;5084063;28;20017;-72
2021/07/12 03:46:01;;;;;;;3.05;2.72;;;;;;;16.83;73.80;100949.53;5083725;28;20125;-72
2021/07/12 03:48:44;;;;;;;3.88;2.92;;;;;;;17.02;73.25;100954.28;5083809;28;20050;-72
2021/07/12 03:51:19;;;;;;;3.63;3.00;;;;;;;17.21;72.57;100956.44;5083868;28;20549;-73
2021/07/12 03:53:44;;;;;;;3.58;2.88;;;;;;;17.37;72.30;100953.38;5083745;28;20424;-71
2021/07/12 03:56:11;;;;;;;3.80;2.72;;;;;;;17.44;72.00;100955.78;5083551;28;20041;-71
2021/07/12 03:58:36;;;;;;;3.63;2.95;;;;;;;17.55;72.07;100957.25;5083606;28;20081;-72
2021/07/12 04:01:03;;;;;;;4.68;3.47;;;;;;;17.69;71.50;100955.09;5083708;28;20049;-72
2021/07/12 04:03:28;;;;;;;5.15;2.80;;;;;;;17.89;70.92;100955.41;5083701;28;20255;-72
2021/07/12 04:05:54;;;;;;;4.07;2.75;;;;;;;18.08;69.90;100946.03;5083585;28;20021;-73
2021/07/12 04:08:19;;;;;;;4.25;2.78;;;;;;;18.21;69.18;100948.31;5083539;28;20025;-72
2021/07/12 04:10:45;;;;;;;3.40;2.45;;;;;;;18.41;68.47;100946.81;5083670;28;20028;-73
2021/07/12 04:13:12;;;;;;;2.75;2.38;;;;;;;18.65;67.89;100947.75;5083510;28;20024;-73
2021/07/12 04:15:37;;;;;;;3.53;2.00;;;;;;;18.93;67.46;100951.22;5083673;28;20024;-73
2021/07/12 04:18:05;;;;;;;4.80;2.80;;;;;;;19.25;66.39;100949.22;5082814;28;20016;-73
2021/07/12 04:20:31;;;;;;;3.13;2.38;;;;;;;19.64;65.56;100952.22;5087906;28;20025;-71
2021/07/12 04:22:56;;;;;;;2.55;2.22;;;;;;;20.12;65.00;100949.53;5069869;28;20017;-73
2021/07/12 04:25:22;;;;;;;4.55;2.75;;;;;;;20.52;62.29;100953.19;5067478;28;20025;-73
2021/07/12 04:27:48;;;;;;;3.83;2.50;;;;;;;20.60;61.78;100947.59;5067490;28;20017;-73
2021/07/12 04:30:14;;;;;;;4.20;2.58;;;;;;;20.53;61.31;100941.72;5065843;28;20020;-72
2021/07/12 04:32:39;;;;;;;7.32;3.22;;;;;;;20.53;61.36;100946.13;5067174;28;20562;-74
2021/07/12 04:35:05;;;;;;;3.35;2.13;;;;;;;20.58;60.83;100944.16;5067221;28;20049;-72
2021/07/12 04:37:30;;;;;;;3.10;2.80;;;;;;;20.73;60.17;100940.00;5067180;28;20037;-67
2021/07/12 04:39:55;;;;;;;2.70;2.50;;;;;;;20.86;60.09;100945.63;5065666;28;20081;-69
2021/07/12 04:42:21;;;;;;;2.28;1.98;;;;;;;21.16;59.78;100944.38;5066760;28;20078;-73
2021/07/12 04:44:47;;;;;;;3.30;2.25;;;;;;;21.32;58.19;100946.31;5067070;28;20509;-72
2021/07/12 04:47:12;;;;;;;4.03;2.40;;;;;;;21.32;58.94;100946.31;5067181;28;20069;-69
2021/07/12 04:49:37;;;;;;;3.97;2.20;;;;;;;21.55;58.55;100953.16;5066974;28;20017;-70
2021/07/12 04:52:04;;;;;;;2.95;1.98;;;;;;;21.92;58.14;100945.34;5066420;28;20550;-70
2021/07/12 04:54:29;;;;;;;3.70;2.45;;;;;;;22.16;55.74;100940.66;5067029;28;20025;-70
2021/07/12 04:56:55;;;;;;;4.65;2.58;;;;;;;21.88;55.93;100949.06;5067028;28;20108;-70
2021/07/12 04:59:27;;;;;;;7.28;2.30;;;;;;;21.48;56.07;100951.75;5066967;28;20021;-69
2021/07/12 05:01:54;;;;;;;2.80;2.45;;;;;;;21.04;57.00;100946.63;5065386;28;20025;-69
2021/07/12 05:04:19;;;;;;;4.00;2.90;;;;;;;20.83;57.96;100958.91;5066508;28;20145;-70
2021/07/12 05:06:45;;;;;;;2.65;2.45;;;;;;;20.96;58.91;100951.38;5066581;28;20025;-70
2021/07/12 05:09:10;;;;;;;3.65;2.30;;;;;;;21.41;58.18;100951.16;5066609;28;20567;-70
2021/07/12 05:11:36;;;;;;;2.63;2.38;;;;;;;21.51;57.10;100946.31;5066487;28;20077;-69
2021/07/12 05:14:02;;;;;;;2.83;2.40;;;;;;;21.53;56.93;100950.59;5066467;28;20027;-68
2021/07/12 05:16:27;;;;;;;4.43;2.17;;;;;;;21.55;57.10;100951.38;5066909;28;20025;-70
2021/07/12 05:18:54;;;;;;;3.72;2.20;;;;;;;21.87;56.54;100947.34;5066677;28;20032;-66
2021/07/12 05:21:20;;;;;;;4.13;2.45;;;;;;;22.12;55.14;100939.09;5066495;28;20048;-63
2021/07/12 05:23:45;;;;;;;3.20;2.28;;;;;;;22.22;55.01;100931.53;5065931;28;20078;-64
2021/07/12 05:26:10;;;;;;;2.90;2.10;;;;;;;22.14;54.31;100936.38;5065815;28;20028;-64
2021/07/12 05:28:37;;;;;;;3.53;2.10;;;;;;;22.12;54.39;100925.00;5066045;28;20080;-65
2021/07/12 05:31:06;;;;;;;2.83;2.10;;;;;;;22.04;54.34;100928.88;5066237;28;20021;-64
2021/07/12 05:33:32;;;;;;;6.35;2.45;;;;;;;21.87;53.54;100927.06;5065548;28;20064;-64
2021/07/12 05:35:57;;;;;;;3.33;2.40;;;;;;;21.62;54.28;100927.31;5065805;28;20025;-65
2021/07/12 05:38:22;;;;;;;2.90;2.42;;;;;;;21.28;54.47;100920.03;5065885;28;20033;-66
2021/07/12 05:40:48;;;;;;;2.65;2.22;;;;;;;21.14;55.56;100917.16;5065895;28;20035;-65
2021/07/12 05:43:13;;;;;;;2.63;2.35;;;;;;;21.43;55.01;100922.91;5065646;28;20469;-65
2021/07/12 05:45:39;;;;;;;2.75;2.17;;;;;;;21.47;55.06;100926.28;5065370;28;20055;-67
2021/07/12 05:48:04;;;;;;;4.55;2.35;;;;;;;21.62;54.93;100917.63;5065825;28;20036;-65
2021/07/12 05:50:30;;;;;;;3.17;2.35;;;;;;;21.78;53.68;100931.00;5066253;28;20031;-67
2021/07/12 05:52:55;;;;;;;5.22;2.40;;;;;;;21.91;53.95;100922.47;5067034;28;20533;-67
2021/07/12 05:55:21;;;;;;;4.85;2.33;;;;;;;22.00;53.49;100914.09;5065545;28;20017;-67
2021/07/12 05:57:46;;;;;;;2.47;2.08;;;;;;;22.29;53.76;100921.53;5064118;28;20477;-67
2021/07/12 06:00:13;;;;;;;5.18;2.30;;;;;;;22.66;52.76;100918.84;5065571;28;20044;-67
2021/07/12 06:02:40;;;;;;;4.32;2.33;;;;;;;23.22;51.91;100925.66;5065374;28;20020;-65
2021/07/12 06:05:07;;;;;;;2.70;2.00;;;;;;;23.79;51.77;100927.00;5065366;28;20029;-66
2021/07/12 06:07:32;;;;;;;3.78;1.98;;;;;;;24.58;49.92;100915.50;5065366;28;20025;-63
2021/07/12 06:09:57;;;;;;;3.30;2.33;;;;;;;24.80;47.85;100919.50;5065123;28;20032;-67
2021/07/12 06:12:23;;;;;;;6.22;2.25;;;;;;;24.63;47.73;100918.72;5063860;28;20055;-65
2021/07/12 06:14:48;;;;;;;2.28;1.70;;;;;;;24.59;47.52;100918.06;5065254;28;20566;-65
2021/07/12 06:17:14;;;;;;;2.40;1.70;;;;;;;24.36;46.11;100916.78;5065184;28;20057;-65
2021/07/12 06:19:39;;;;;;;4.45;1.70;;;;;;;24.19;47.57;100920.38;5064945;28;20037;-65
2021/07/12 06:22:04;;;;;;;5.13;2.50;;;;;;;24.37;47.24;100923.78;5064992;28;20032;-65
2021/07/12 06:24:30;;;;;;;4.53;1.77;;;;;;;24.29;46.79;100931.31;5064751;28;20021;-65
2021/07/12 06:26:56;;;;;;;2.60;1.50;;;;;;;24.30;46.87;100930.41;5064850;28;20032;-65
2021/07/12 06:29:22;;;;;;;2.22;1.63;;;;;;;24.29;46.89;100941.94;5064710;28;20086;-66
2021/07/12 06:31:48;;;;;;;3.78;1.77;;;;;;;24.30;46.68;100936.53;5064749;28;20040;-65
2021/07/12 06:34:13;;;;;;;4.82;2.00;;;;;;;24.28;46.58;100937.59;5064732;28;20088;-65
2021/07/12 06:36:39;;;;;;;2.00;1.70;;;;;;;24.06;46.44;100942.28;5063214;28;20047;-65
2021/07/12 06:39:05;;;;;;;2.47;1.85;;;;;;;23.84;46.82;100946.16;5064865;28;20044;-65
2021/07/12 06:41:32;;;;;;;3.17;1.80;;;;;;;23.63;47.08;100945.56;5064458;28;20032;-65
2021/07/12 06:43:58;;;;;;;2.50;1.90;;;;;;;23.45;47.78;100945.63;5064694;28;20032;-65
2021/07/12 06:46:24;;;;;;;1.98;1.60;;;;;;;23.67;47.58;100941.81;5064637;28;20025;-65
2021/07/12 06:48:49;;;;;;;2.83;2.08;;;;;;;23.81;46.89;100926.91;5064141;28;20037;-65
2021/07/12 06:51:15;;;;;;;2.08;1.60;;;;;;;23.96;47.10;100944.59;5064199;28;20021;-65
2021/07/12 06:53:40;;;;;;;2.90;1.83;;;;;;;24.25;47.22;100938.59;5063979;28;20064;-66
2021/07/12 06:56:06;;;;;;;2.10;1.63;;;;;;;24.73;45.78;100938.44;5064462;28;20533;-66
2021/07/12 06:58:32;;;;;;;2.00;1.55;;;;;;;24.89;44.67;100937.53;5064537;28;20030;-66
2021/07/12 07:00:57;;;;;;;4.22;2.10;;;;;;;24.80;45.17;100948.69;5064145;28;20075;-66
2021/07/12 07:03:23;;;;;;;2.33;1.52;;;;;;;24.93;44.96;100946.19;5064124;28;20024;-66
2021/07/12 07:05:48;;;;;;;1.98;1.38;;;;;;;24.84;44.90;100937.78;5064231;28;20025;-66
2021/07/12 07:08:14;;;;;;;5.00;1.80;;;;;;;25.06;44.78;100935.69;5064463;28;20071;-66
2021/07/12 07:10:39;;;;;;;3.38;1.80;;;;;;;25.33;44.28;100932.25;5064083;28;20059;-66
2021/07/12 07:13:04;;;;;;;2.05;1.17;;;;;;;25.45;44.44;100942.09;5064341;28;20032;-65
2021/07/12 07:15:30;;;;;;;3.72;1.60;;;;;;;25.47;43.51;100942.84;5064253;28;20024;-66
2021/07/12 07:17:55;;;;;;;13.40;1.73;;;;;;;25.27;43.67;100933.50;5064333;28;20047;-69
2021/07/12 07:20:21;;;;;;;1.92;1.30;;;;;;;24.96;43.50;100935.38;5064319;28;20029;-66
2021/07/12 07:22:49;;;;;;;3.10;1.58;;;;;;;24.64;44.15;100941.66;5063827;28;20470;-69
2021/07/12 07:25:15;;;;;;;2.10;1.52;;;;;;;24.51;44.85;100946.84;5063759;28;20299;-66
2021/07/12 07:27:41;;;;;;;2.22;1.30;;;;;;;24.43;45.03;100944.63;5063994;28;20037;-66
2021/07/12 07:30:07;;;;;;;3.03;1.58;;;;;;;24.48;45.12;100947.88;5063804;28;20082;-66
2021/07/12 07:32:33;;;;;;;1.83;1.30;;;;;;;24.56;44.88;100941.25;5063596;28;20087;-66
2021/07/12 07:34:59;;;;;;;3.70;1.70;;;;;;;24.41;45.13;100946.53;5062294;28;20067;-66
2021/07/12 07:37:24;;;;;;;3.50;1.75;;;;;;;24.07;45.09;100949.31;5063695;28;20029;-66
2021/07/12 07:39:50;;;;;;;3.22;1.70;;;;;;;23.76;46.14;100946.59;5063698;28;20033;-66
2021/07/12 07:42:15;;;;;;;2.60;1.58;;;;;;;23.70;47.03;100951.38;5063637;28;20531;-67
2021/07/12 07:44:40;;;;;;;2.55;1.70;;;;;;;23.64;46.86;100953.44;5062324;28;20024;-66
2021/07/12 07:47:06;;;;;;;1.70;1.40;;;;;;;23.54;47.25;100946.94;5063527;28;20025;-67
2021/07/12 07:49:32;;;;;;;3.10;1.30;;;;;;;23.64;46.73;100952.59;5063462;28;20027;-66
2021/07/12 07:51:57;;;;;;;2.10;1.33;;;;;;;23.69;46.61;100955.81;5062961;28;20021;-65
2021/07/12 07:54:23;;;;;;;2.40;1.70;;;;;;;23.69;46.79;100958.47;5062593;28;20091;-66
2021/07/12 07:56:48;;;;;;;2.10;1.50;;;;;;;23.92;46.71;100961.63;5063371;28;20024;-65
2021/07/12 07:59:14;;;;;;;3.47;2.25;;;;;;;24.14;45.99;100960.41;5063307;28;20489;-65
2021/07/12 08:01:40;;;;;;;2.75;1.30;;;;;;;24.38;45.92;100946.69;5063330;28;20481;-66
2021/07/12 08:04:05;;;;;;;4.18;1.70;;;;;;;24.71;44.84;100958.09;5063191;28;20035;-66
2021/07/12 08:06:31;;;;;;;4.97;3.58;;;;;;;25.00;44.70;100953.69;5063317;28;20021;-66
2021/07/12 08:08:56;;;;;;;3.67;2.28;;;;;;;25.58;44.21;100951.94;5063051;28;20043;-66
2021/07/12 08:11:22;;;;;;;2.30;1.52;;;;;;;26.30;42.42;100948.22;5063174;28;20047;-66
2021/07/12 08:13:47;;;;;;;1.95;1.45;;;;;;;26.72;40.80;100947.25;5063539;28;20388;-66
2021/07/12 08:16:13;;;;;;;2.13;1.52;;;;;;;26.75;39.94;100946.19;5063258;28;20052;-65
2021/07/12 08:18:38;;;;;;;5.57;1.90;;;;;;;26.58;39.61;100945.56;5063414;28;20091;-66
2021/07/12 08:21:06;;;;;;;2.30;1.35;;;;;;;26.56;40.09;100958.09;5063126;28;20033;-66
2021/07/12 08:23:32;;;;;;;2.00;1.30;;;;;;;26.88;39.42;100940.88;5061970;28;20048;-66
2021/07/12 08:25:57;;;;;;;1.73;1.35;;;;;;;27.05;39.16;100953.91;5063145;28;20342;-66
2021/07/12 08:28:25;;;;;;;2.25;1.17;;;;;;;27.13;38.24;100958.69;5061654;28;20032;-66
2021/07/12 08:30:52;;;;;;;2.70;1.45;;;;;;;27.12;38.97;100943.66;5061507;28;20052;-66
2021/07/12 08:33:17;;;;;;;2.25;1.40;;;;;;;27.20;37.62;100949.31;5062971;28;20029;-66
2021/07/12 08:35:43;;;;;;;2.50;1.30;;;;;;;27.15;37.42;100948.78;5063168;28;20172;-66
2021/07/12 08:38:08;;;;;;;3.38;1.30;;;;;;;27.30;37.87;100943.31;5062843;28;20036;-66
2021/07/12 08:40:34;;;;;;;2.22;1.30;;;;;;;27.65;37.05;100937.25;5063170;28;20031;-66
2021/07/12 08:43:00;;;;;;;2.35;1.33;;;;;;;27.94;36.42;100936.13;5063117;28;20048;-66
2021/07/12 08:45:27;;;;;;;2.03;1.38;;;;;;;28.10;36.41;100938.47;5062801;28;20479;-66
2021/07/12 08:47:53;;;;;;;1.33;1.00;;;;;;;28.48;35.91;100933.91;5062975;28;20098;-66
2021/07/12 08:50:22;;;;;;;2.03;1.30;;;;;;;29.06;34.42;100940.19;5062835;28;20025;-66
2021/07/12 08:52:49;;;;;;;2.13;1.40;;;;;;;29.13;34.25;100936.06;5062503;28;20072;-66
2021/07/12 08:55:15;;;;;;;2.80;1.33;;;;;;;29.27;32.98;100936.75;5062770;28;20025;-67
2021/07/12 08:58:04;;;;;;;1.75;1.13;;;;;;;29.18;32.75;100939.22;5062642;28;20040;-66
2021/07/12 09:00:46;;;;;;;3.30;1.65;;;;;;;29.09;32.36;100939.94;5062798;28;20036;-66
2021/07/12 09:03:27;;;;;;;1.20;1.00;;;;;;;28.96;31.51;100937.41;5062712;28;20104;-66
2021/07/12 09:06:14;;;;;;;2.00;1.20;;;;;;;29.01;31.87;100945.88;5066378;28;20021;-65
2021/07/12 09:08:47;;;;;;;4.20;3.42;;;;;;;28.21;32.44;100941.19;5066321;28;20031;-66
2021/07/12 09:11:18;;;;;;;1.67;1.27;;;;;;;27.88;32.71;100947.22;5066549;28;20082;-65
2021/07/12 09:14:03;;;;;;;2.15;1.38;;;;;;;27.79;32.61;100946.09;5066195;28;20091;-66
2021/07/12 09:16:31;;;;;;;1.60;0.98;;;;;;;27.95;31.56;100949.34;5066410;28;20504;-65
2021/07/12 09:19:20;;;;;;;1.77;1.17;;;;;;;28.25;32.01;100957.81;5066100;28;20108;-65
2021/07/12 09:22:03;;;;;;;1.48;1.10;;;;;;;28.78;31.41;100945.00;5066376;28;20017;-66
2021/07/12 09:24:52;;;;;;;1.48;1.02;;;;;;;29.00;30.77;100932.66;5066029;28;20107;-65
2021/07/12 09:27:24;;;;;;;2.63;0.98;;;;;;;28.42;30.95;100931.72;5066299;28;20024;-66
2021/07/12 09:30:21;;;;;;;1.63;1.17;;;;;;;28.07;31.72;100933.34;5066172;28;20025;-65
2021/07/12 09:32:47;;;;;;;1.23;0.93;;;;;;;28.30;31.74;100931.63;5057375;28;20028;-65
2021/07/12 09:35:15;;;;;;;2.45;1.08;;;;;;;28.79;30.73;100922.63;5064682;28;20021;-66
2021/07/12 09:37:43;;;;;;;1.42;0.82;;;;;;;29.12;29.97;100921.00;5065898;28;20032;-66
2021/07/12 09:40:15;;;;;;;1.98;1.40;;;;;;;29.65;29.78;100915.97;5066133;28;20036;-66
2021/07/12 09:42:46;;;;;;;1.55;1.10;;;;;;;30.53;29.57;100918.47;5065983;28;20036;-66
2021/07/12 09:45:14;;;;;;;1.88;1.13;;;;;;;30.92;26.70;100925.91;5065891;28;20029;-66
2021/07/12 09:47:44;;;;;;;1.73;1.13;;;;;;;30.49;27.20;100921.56;5065599;28;20062;-65
2021/07/12 09:50:13;;;;;;;1.20;0.88;;;;;;;30.25;26.66;100909.28;5065818;28;20108;-66
2021/07/12 09:52:54;;;;;;;2.00;1.10;;;;;;;30.32;27.30;100909.63;5065523;28;20044;-64
2021/07/12 09:55:23;;;;;;;;;;;;;;;30.33;27.49;100906.81;5066115;28;20054;-67
2021/07/12 09:58:16;;;;;;;1.65;1.00;;;;;;;30.41;27.79;100904.34;5065443;28;19995;-66
2021/07/12 10:00:51;;;;;;;1.55;1.05;;;;;;;31.01;26.88;100910.84;5065603;28;20052;-67
2021/07/12 10:03:18;;;;;;;1.13;0.98;;;;;;;30.93;27.30;100902.63;5065544;28;20045;-67
2021/07/12 10:05:45;;;;;;;2.75;0.98;;;;;;;31.38;27.12;100896.03;5065342;28;20029;-64
2021/07/12 10:08:12;;;;;;;1.30;1.02;;;;;;;31.44;26.75;100897.28;5065331;28;20017;-64
2021/07/12 10:10:37;;;;;;;1.38;1.10;;;;;;;31.23;26.87;100897.38;5064159;28;20071;-64
2021/07/12 10:13:03;;;;;;;2.67;1.17;;;;;;;30.72;27.23;100894.63;5064779;28;20021;-65
2021/07/12 10:15:28;;;;;;;1.65;1.13;;;;;;;30.41;28.27;100895.44;5064517;28;20107;-64
2021/07/12 10:17:53;;;;;;;1.52;1.15;;;;;;;30.77;27.57;100892.38;5064660;28;20040;-64
2021/07/12 10:20:20;;;;;;;1.40;1.00;;;;;;;30.43;27.42;100890.81;5064433;28;20024;-63
2021/07/12 10:22:47;;;;;;;1.95;0.98;;;;;;;29.98;28.36;100894.53;5064576;28;20582;-64
2021/07/12 10:25:16;;;;;;;1.85;1.10;;;;;;;29.61;28.30;100887.75;5064610;28;20527;-64
2021/07/12 10:27:59;;;;;;;1.42;1.00;;;;;;;29.79;29.59;100890.75;5064685;28;20029;-65
2021/07/12 10:30:27;;;;;;;1.95;1.20;;;;;;;30.02;28.64;100886.13;5064609;28;20385;-67
2021/07/12 10:32:59;;;;;;;1.65;1.13;;;;;;;30.45;28.18;100882.63;5064879;28;20028;-69
2021/07/12 10:35:47;;;;;;;1.90;1.05;;;;;;;30.29;28.87;100882.13;5065219;28;20027;-67
2021/07/12 10:38:17;;;;;;;2.15;1.00;;;;;;;30.16;28.34;100865.38;5065175;28;20029;-66
2021/07/12 10:40:43;;;;;;;1.47;1.10;;;;;;;29.66;28.86;100869.50;5064753;28;20540;-67
2021/07/12 10:43:08;;;;;;;2.10;0.93;;;;;;;29.76;29.47;100869.59;5064491;28;20020;-66
2021/07/12 10:45:37;;;;;;;1.50;1.15;;;;;;;29.73;29.08;100867.19;5064396;28;20744;-67
2021/07/12 10:48:05;;;;;;;1.60;1.08;;;;;;;30.21;28.89;100859.66;5064597;28;20021;-67
2021/07/12 10:51:18;;;;;;;1.60;1.30;;;;;;;30.35;28.07;100859.34;5064387;28;20548;-67
2021/07/12 10:53:54;;;;;;;1.70;1.10;;;;;;;30.02;28.40;100863.84;5045383;28;20068;-66
2021/07/12 10:56:21;;;;;;;1.42;1.10;;;;;;;29.26;29.38;100860.22;5064703;28;20071;-66
2021/07/12 10:58:47;;;;;;;1.65;1.30;;;;;;;28.26;30.69;100866.09;5064582;28;20363;-66
2021/07/12 11:01:16;;;;;;;1.77;1.40;;;;;;;28.29;31.11;100859.69;5064482;28;20036;-65
2021/07/12 11:03:45;;;;;;;2.28;1.20;;;;;;;28.33;31.27;100855.81;5062754;28;20056;-67
2021/07/12 11:06:14;;;;;;;1.50;1.30;;;;;;;28.29;31.86;100854.34;5064304;28;20028;-65
2021/07/12 11:08:56;;;;;;;2.08;1.35;;;;;;;27.65;31.96;100864.41;5064275;28;20088;-65
2021/07/12 11:11:26;;;;;;;4.55;1.30;;;;;;;27.05;33.41;100865.13;5064284;28;20043;-66
2021/07/12 11:14:00;;;;;;;3.35;1.30;;;;;;;26.69;33.61;100859.59;5064212;28;20091;-66
2021/07/12 11:16:37;;;;;;;2.00;1.60;;;;;;;26.31;34.44;100859.47;5063994;28;20025;-66
2021/07/12 11:19:24;;;;;;;1.92;1.73;;;;;;;25.96;34.97;100855.56;5063991;28;20080;-65
2021/07/12 11:21:51;;;;;;;3.25;1.60;;;;;;;25.60;35.65;100855.22;5064120;28;20100;-65
2021/07/12 11:24:20;;;;;;;2.20;1.50;;;;;;;25.40;36.31;100845.84;5063675;28;20051;-67
2021/07/12 11:26:48;;;;;;;2.13;1.70;;;;;;;25.24;36.87;100846.84;5063852;28;20035;-64
2021/07/12 11:29:39;;;;;;;1.30;1.20;;;;;;;25.30;37.30;100842.09;5063939;28;20047;-66
2021/07/12 11:32:07;;;;;;;2.53;1.73;;;;;;;25.36;37.08;100849.69;5061610;28;20041;-66
2021/07/12 11:34:34;;;;;;;1.83;1.48;;;;;;;25.35;37.18;100851.47;5062107;28;20117;-65